Terminal Aerodrome Forecast
Issued by NWS

Home | Current Version | Previous Version | Graphics & Text | Print | Product List | Glossary Off
Versions: 1 2 3 4 5 6 7 8 9 10 11 12 13 14

000
FTUS43 KUNR 220800 AAA
TAFGCC
TAF AMD
KGCC 220829Z 2208/2306 30018G28KT P6SM BKN050
     FM222100 32024G36KT 5SM -SHSN BKN015=

USA.gov is the U.S. government's official web portal to all federal, state and local government web resources and services.